createdAt,value
2023-08-12T00:00:12.217Z,93.53
2023-08-12T00:04:14.834Z,93.29
2023-08-12T00:06:15.974Z,93.34
2023-08-12T00:08:17.276Z,93.43
2023-08-12T00:10:18.504Z,93.57
2023-08-12T00:14:21.313Z,93.94
2023-08-12T00:16:22.534Z,94.27
2023-08-12T00:18:23.696Z,94.31
2023-08-12T00:22:26.102Z,94.73
2023-08-12T00:24:27.047Z,94.43
2023-08-12T00:26:28.115Z,94.28
2023-08-12T00:28:29.779Z,94.19
2023-08-12T00:32:32.459Z,94.03
2023-08-12T00:34:33.807Z,94.05
2023-08-12T00:36:35.256Z,94.19
2023-08-12T00:40:37.232Z,93.97
2023-08-12T00:42:38.554Z,93.79
2023-08-12T00:44:40.186Z,93.87
2023-08-12T00:46:42.046Z,93.59
2023-08-12T00:48:42.933Z,93.56
2023-08-12T00:50:44.401Z,93.84
2023-08-12T00:52:45.902Z,94.16
2023-08-12T00:54:47.530Z,94.33
2023-08-12T00:58:50.215Z,94.7
2023-08-12T01:00:51.909Z,94.81
2023-08-12T01:02:53.501Z,94.92
2023-08-12T01:06:56.642Z,94.95
2023-08-12T01:08:57.568Z,95.09
2023-08-12T01:10:59.438Z,95.08
2023-08-12T01:15:01.490Z,95.22
2023-08-12T01:17:02.557Z,95.18
2023-08-12T01:19:04.329Z,95.07
2023-08-12T01:21:05.907Z,95.15
2023-08-12T01:25:08.826Z,95.55
2023-08-12T01:27:10.205Z,95.58
2023-08-12T01:29:11.576Z,95.73
2023-08-12T01:33:13.856Z,95.7
2023-08-12T01:35:15.396Z,95.73
2023-08-12T01:37:17.155Z,95.76
2023-08-12T01:41:20.471Z,95.97
2023-08-12T01:43:22.272Z,96.13
2023-08-12T01:45:23.263Z,96.22
2023-08-12T01:47:24.348Z,96.29
2023-08-12T01:51:27.090Z,96.3
2023-08-12T01:53:28.021Z,96.25
2023-08-12T01:55:28.939Z,96.39
2023-08-12T01:59:31.679Z,96.29
2023-08-12T02:01:32.857Z,96.34
2023-08-12T02:03:34.726Z,96.31
2023-08-12T02:07:36.657Z,96.19
2023-08-12T02:09:37.680Z,96.23
2023-08-12T02:11:39.264Z,96.16
2023-08-12T02:13:40.746Z,96.18
2023-08-12T02:17:43.849Z,96.33
2023-08-12T02:19:44.821Z,96.24
2023-08-12T02:21:46.178Z,96.32
2023-08-12T02:25:48.638Z,96.32
2023-08-12T02:27:50.146Z,96.29
2023-08-12T02:29:51.844Z,96.34
2023-08-12T02:31:53.060Z,96.44
2023-08-12T02:35:55.974Z,96.54
2023-08-12T02:37:56.887Z,96.56
2023-08-12T02:39:58.301Z,96.5
2023-08-12T02:44:01.034Z,96.52
2023-08-12T02:46:02.258Z,96.66
2023-08-12T02:48:03.454Z,96.63
2023-08-12T02:50:04.362Z,96.59
2023-08-12T02:54:07.504Z,96.43
2023-08-12T02:56:53.055Z,96.41
2023-08-12T03:00:55.728Z,96.55
2023-08-12T03:02:56.834Z,96.59
2023-08-12T03:04:57.969Z,96.6
2023-08-12T03:06:59.168Z,96.52
2023-08-12T03:11:02.155Z,96.41
2023-08-12T03:13:03.750Z,96.44
2023-08-12T03:15:05.242Z,96.51
2023-08-12T03:19:08.600Z,96.17
2023-08-12T03:21:09.742Z,95.97
2023-08-12T03:23:11.120Z,95.81
2023-08-12T03:25:12.356Z,95.77
2023-08-12T03:29:14.902Z,95.58
2023-08-12T03:31:16.538Z,95.53
2023-08-12T03:33:17.474Z,95.57
2023-08-12T03:37:20.767Z,95.68
2023-08-12T03:39:21.910Z,95.88
2023-08-12T03:41:22.826Z,95.98
2023-08-12T03:45:25.816Z,96.1
2023-08-12T03:47:26.719Z,96.26
2023-08-12T03:49:28.420Z,96.26
2023-08-12T03:51:30.179Z,96.23
2023-08-12T03:55:32.996Z,96.15
2023-08-12T03:57:34.804Z,96.16
2023-08-12T03:59:36.427Z,96.12
2023-08-12T04:03:38.407Z,95.93
2023-08-12T04:05:39.726Z,95.86
2023-08-12T04:07:41.227Z,95.78
2023-08-12T04:09:42.578Z,95.83
2023-08-12T04:13:44.723Z,96.06
2023-08-12T04:15:46.517Z,96.31
2023-08-12T04:17:48.006Z,96.42
2023-08-12T04:21:50.416Z,96.32
2023-08-12T04:23:51.609Z,96.29
2023-08-12T04:25:53.217Z,95.82
2023-08-12T04:27:55.059Z,95.53
2023-08-12T04:31:57.662Z,95.81
2023-08-12T04:33:59.155Z,95.93
2023-08-12T04:36:00.690Z,96.06
2023-08-12T04:40:03.214Z,96.18
2023-08-12T04:42:04.508Z,96.38
2023-08-12T04:44:06.288Z,96.44
2023-08-12T04:48:08.741Z,96.36
2023-08-12T04:50:10.230Z,95.99
2023-08-12T04:52:11.287Z,96.13
2023-08-12T04:54:12.321Z,96.11
2023-08-12T04:58:14.656Z,95.95
2023-08-12T05:00:15.559Z,95.89
2023-08-12T05:02:17.523Z,95.82
2023-08-12T05:06:19.661Z,95.63
2023-08-12T05:08:20.971Z,95.61
2023-08-12T05:10:21.896Z,95.63
2023-08-12T05:14:23.978Z,95.8
2023-08-12T05:16:25.643Z,95.8
2023-08-12T05:18:26.791Z,95.8
2023-08-12T05:20:27.880Z,95.89
2023-08-12T05:24:30.510Z,96.29
2023-08-12T05:26:31.746Z,96.46
2023-08-12T05:28:32.929Z,96.51
2023-08-12T05:32:35.411Z,96.45
2023-08-12T05:34:37.048Z,96.45
2023-08-12T05:36:37.900Z,96.41
2023-08-12T05:40:40.853Z,96.23
2023-08-12T05:42:42.466Z,96.04
2023-08-12T05:44:43.796Z,96.02
2023-08-12T05:46:44.664Z,95.91
2023-08-12T05:48:46.494Z,95.93
2023-08-12T05:50:47.739Z,95.98
2023-08-12T05:52:49.098Z,95.87
2023-08-12T05:54:49.926Z,96.01
2023-08-12T05:58:53.047Z,95.65
2023-08-12T06:00:54.186Z,95.55
2023-08-12T06:02:55.137Z,95.55
2023-08-12T06:06:57.862Z,95.45
2023-08-12T06:08:59.306Z,95.54
2023-08-12T06:11:00.249Z,95.56
2023-08-12T06:13:01.903Z,95.34
2023-08-12T06:17:04.427Z,94.79
2023-08-12T06:19:05.705Z,94.97
2023-08-12T06:21:07.420Z,94.77
2023-08-12T06:25:09.725Z,93.86
2023-08-12T06:27:11.397Z,93.73
2023-08-12T06:29:12.336Z,93.1
2023-08-12T06:31:14.113Z,92.95
2023-08-12T06:35:16.614Z,90.42
2023-08-12T06:37:17.728Z,89.33
2023-08-12T06:39:19.300Z,90.22
2023-08-12T06:43:21.162Z,89.53
2023-08-12T06:45:22.167Z,87.38
2023-08-12T06:47:23.232Z,87.74
2023-08-12T06:49:24.712Z,86.59
2023-08-12T06:53:27.068Z,86.54
2023-08-12T06:55:28.307Z,87.79
2023-08-12T06:57:29.659Z,87.13
2023-08-12T07:01:32.671Z,87.81
2023-08-12T07:03:33.687Z,86.92
2023-08-12T07:05:34.688Z,86.82
2023-08-12T07:09:37.690Z,87.64
2023-08-12T07:11:38.532Z,88.04
2023-08-12T07:13:40.177Z,87.72
2023-08-12T07:15:41.091Z,87.63
2023-08-12T07:19:43.873Z,87.77
2023-08-12T07:21:45.341Z,87.06
2023-08-12T07:23:54.942Z,87.01
2023-08-12T07:27:49.246Z,87.15
2023-08-12T07:29:50.357Z,87.08
2023-08-12T07:31:51.982Z,86.5
2023-08-12T07:33:53.326Z,85.81
2023-08-12T07:37:56.646Z,86.36
2023-08-12T07:39:58.354Z,85.09
2023-08-12T07:42:00.040Z,83.27
2023-08-12T07:48:03.875Z,79.29
2023-08-12T07:50:04.988Z,80.82
2023-08-12T07:54:07.475Z,78.6
2023-08-12T07:56:08.312Z,75.21
2023-08-12T07:58:09.026Z,71.79
2023-08-12T08:00:09.995Z,72.36
2023-08-12T08:04:12.566Z,68.61
2023-08-12T08:06:14.074Z,70.61
2023-08-12T08:08:15.131Z,67.94
2023-08-12T08:12:16.872Z,64.98
2023-08-12T08:14:18.424Z,63.54
2023-08-12T08:16:19.264Z,62.64
2023-08-12T08:20:22.106Z,62.02
2023-08-12T08:22:23.233Z,60.57
2023-08-12T08:24:24.031Z,60.21
2023-08-12T08:26:26.053Z,60.54
2023-08-12T08:30:28.255Z,61.82
2023-08-12T08:32:29.865Z,61.56
2023-08-12T08:34:31.311Z,62.9
2023-08-12T08:38:33.926Z,62.51
2023-08-12T08:40:35.420Z,63.19
2023-08-12T08:42:36.486Z,66.79
2023-08-12T08:46:38.807Z,69.51
2023-08-12T08:48:40.212Z,67.18
2023-08-12T08:50:41.003Z,68.47
2023-08-12T08:52:42.708Z,67.62
2023-08-12T08:56:47.545Z,69.1
2023-08-12T08:58:46.644Z,72.21
2023-08-12T09:00:47.821Z,73.51
2023-08-12T09:04:50.376Z,73.79
2023-08-12T09:06:51.866Z,75.77
2023-08-12T09:08:52.839Z,77.36
2023-08-12T09:10:54.259Z,74.75
2023-08-12T09:14:56.572Z,73
2023-08-12T09:16:58.003Z,71.2
2023-08-12T09:18:58.671Z,72.56
2023-08-12T09:23:01.951Z,72.02
2023-08-12T09:25:02.808Z,72.65
2023-08-12T09:27:04.469Z,71.4
2023-08-12T09:29:05.795Z,69.11
2023-08-12T09:33:08.603Z,70
2023-08-12T09:35:09.594Z,68.49
2023-08-12T09:37:10.344Z,70.18
2023-08-12T09:39:11.662Z,68.54
2023-08-12T09:39:55.278Z,67.3
2023-08-12T09:41:56.054Z,65.81
2023-08-12T09:43:57.397Z,63.39
2023-08-12T09:45:58.884Z,65.85
2023-08-12T09:50:00.754Z,63.79
2023-08-12T09:52:01.767Z,62.32
2023-08-12T09:54:03.336Z,64.68
2023-08-12T09:58:06.552Z,61.67
2023-08-12T10:00:07.808Z,60.86
2023-08-12T10:02:08.807Z,60.21
2023-08-12T10:04:09.948Z,58.08
2023-08-12T10:08:12.381Z,60
2023-08-12T10:10:14.113Z,63.55
2023-08-12T10:12:17.850Z,60.47
2023-08-12T10:16:18.424Z,61.43
2023-08-12T10:18:19.213Z,62.41
2023-08-12T10:20:20.552Z,59.64
2023-08-12T10:24:23.827Z,59
2023-08-12T10:26:25.200Z,56.88
2023-08-12T10:28:26.407Z,60.13
2023-08-12T10:30:28.091Z,57.15
2023-08-12T10:34:29.916Z,59.29
2023-08-12T10:36:30.661Z,60.59
2023-08-12T10:38:32.796Z,59.18
2023-08-12T10:42:35.098Z,58.79
2023-08-12T10:44:36.052Z,61.24
2023-08-12T10:46:37.063Z,58.08
2023-08-12T10:48:38.189Z,55.96
2023-08-12T10:52:40.422Z,55.96
2023-08-12T10:54:41.984Z,56.5
2023-08-12T10:56:43.319Z,57.69
2023-08-12T11:00:45.121Z,52.34
2023-08-12T11:02:46.653Z,53.27
2023-08-12T11:04:48.202Z,52.9
2023-08-12T11:06:49.085Z,54.18
2023-08-12T11:10:51.880Z,56.25
2023-08-12T11:12:53.333Z,52.48
2023-08-12T11:14:54.325Z,52.71
2023-08-12T11:18:56.549Z,53.64
2023-08-12T11:20:58.259Z,54.12
2023-08-12T11:22:59.930Z,51.96
2023-08-12T11:27:02.809Z,55.04
2023-08-12T11:29:04.079Z,52.75
2023-08-12T11:31:05.493Z,51.31
2023-08-12T11:33:06.740Z,54.16
2023-08-12T11:37:09.444Z,50.67
2023-08-12T11:39:10.686Z,51.94
2023-08-12T11:41:11.431Z,53.01
2023-08-12T11:45:13.699Z,53.13
2023-08-12T11:47:14.704Z,51.95
2023-08-12T11:49:15.607Z,53.47
2023-08-12T11:53:18.850Z,51.81
2023-08-12T11:55:20.035Z,51.92
2023-08-12T11:57:21.347Z,51.09
2023-08-12T11:59:22.456Z,51.23
2023-08-12T12:03:25.625Z,50.67
2023-08-12T12:05:26.903Z,49.64
2023-08-12T12:07:27.731Z,49.48
2023-08-12T12:11:29.784Z,52.71
2023-08-12T12:13:31.339Z,51.38
2023-08-12T12:15:32.158Z,49.64
2023-08-12T12:19:34.585Z,51.64
2023-08-12T12:21:35.642Z,51.05
2023-08-12T12:23:36.518Z,50.29
2023-08-12T12:25:38.609Z,50.37
2023-08-12T12:29:40.801Z,51.73
2023-08-12T12:31:41.539Z,52.28
2023-08-12T12:33:42.912Z,52.37
2023-08-12T12:37:44.790Z,52.84
2023-08-12T12:39:45.829Z,54.12
2023-08-12T12:41:48.629Z,53.56
2023-08-12T12:43:48.912Z,54.49
2023-08-12T12:47:50.978Z,56.13
2023-08-12T12:49:52.069Z,56.77
2023-08-12T12:51:52.861Z,57.17
2023-08-12T12:55:54.812Z,67.81
2023-08-12T12:57:56.027Z,69.42
2023-08-12T12:59:57.260Z,70.16
2023-08-12T13:04:00.237Z,70.64
2023-08-12T13:06:01.382Z,70.61
2023-08-12T13:08:02.416Z,71.46
2023-08-12T13:10:04.711Z,72.35
2023-08-12T13:14:06.696Z,75.03
2023-08-12T13:16:08.112Z,74.6
2023-08-12T13:18:09.170Z,73.92
2023-08-12T13:22:11.580Z,72.93
2023-08-12T13:24:13.066Z,73.39
2023-08-12T13:26:14.527Z,73.71
2023-08-12T13:28:15.304Z,72.84
2023-08-12T13:32:17.714Z,73.3
2023-08-12T13:34:18.645Z,73.01
2023-08-12T13:36:21.246Z,73.22
2023-08-12T13:40:24.024Z,73.62
2023-08-12T13:42:25.426Z,74.4
2023-08-12T13:44:26.295Z,72.11
2023-08-12T13:46:27.081Z,73.52
2023-08-12T13:50:28.854Z,73.09
2023-08-12T13:52:29.755Z,73.29
2023-08-12T13:54:30.546Z,74.26
2023-08-12T13:58:33.224Z,72.5
2023-08-12T14:00:34.387Z,75.33
2023-08-12T14:02:35.549Z,80.02
2023-08-12T14:04:36.473Z,82.42
2023-08-12T14:06:37.341Z,84.81
2023-08-12T14:08:38.229Z,86.35
2023-08-12T14:10:39.600Z,87.28
2023-08-12T14:12:40.519Z,88.71
2023-08-12T14:16:42.732Z,90.65
2023-08-12T14:18:44.132Z,90.89
2023-08-12T14:20:45.796Z,90.98
2023-08-12T14:24:47.635Z,90.62
2023-08-12T14:26:48.616Z,90.95
2023-08-12T14:28:49.856Z,91.57
2023-08-12T14:32:52.638Z,92.59
2023-08-12T14:34:53.754Z,93.19
2023-08-12T14:36:55.348Z,94.28
2023-08-12T14:38:56.919Z,94.43
2023-08-12T14:43:08.197Z,95.17
2023-08-12T14:45:01.081Z,95.05
2023-08-12T14:47:02.227Z,95.23
2023-08-12T14:51:04.965Z,93.57
2023-08-12T14:53:06.091Z,93.67
2023-08-12T14:55:07.374Z,92.31
2023-08-12T14:59:10.415Z,92.56
2023-08-12T15:01:11.869Z,92.44
2023-08-12T15:03:13.467Z,92.24
2023-08-12T15:05:14.873Z,91.47
2023-08-12T15:09:17.051Z,92.7
2023-08-12T15:11:18.200Z,91.3
2023-08-12T15:13:19.212Z,89.94
2023-08-12T15:15:19.953Z,90.91
2023-08-12T15:17:21.587Z,90.16
2023-08-12T15:19:22.416Z,90.18
2023-08-12T15:21:24.091Z,89.32
2023-08-12T15:27:26.934Z,89.7
2023-08-12T15:29:27.966Z,89.51
2023-08-12T15:31:28.928Z,90.47
2023-08-12T15:35:31.507Z,90.4
2023-08-12T15:37:32.439Z,90.53
2023-08-12T15:39:33.470Z,92.26
2023-08-12T15:43:35.700Z,93.01
2023-08-12T15:45:37.011Z,93.31
2023-08-12T15:47:38.763Z,93.54
2023-08-12T15:49:40.163Z,93.44
2023-08-12T15:53:42.635Z,94.03
2023-08-12T15:55:43.360Z,94.45
2023-08-12T15:57:44.608Z,94.52
2023-08-12T16:01:47.173Z,94.7
2023-08-12T16:03:48.874Z,94.77
2023-08-12T16:05:50.344Z,95.06
2023-08-12T16:07:51.835Z,95.27
2023-08-12T16:11:54.460Z,95.5
2023-08-12T16:13:56.105Z,95.63
2023-08-12T16:15:57.190Z,95.64
2023-08-12T16:20:00.285Z,95.83
2023-08-12T16:22:01.390Z,96
2023-08-12T16:24:03.194Z,96.21
2023-08-12T16:28:49.664Z,96.38
2023-08-12T16:30:51.388Z,96.43
2023-08-12T16:32:52.440Z,96.45
2023-08-12T16:37:09.504Z,96.58
2023-08-12T16:38:55.622Z,96.58
2023-08-12T16:40:56.482Z,96.69
2023-08-12T16:42:57.493Z,96.75
2023-08-12T16:47:00.490Z,96.74
2023-08-12T16:49:01.611Z,96.62
2023-08-12T16:51:03.367Z,96.89
2023-08-12T16:55:06.089Z,96.95
2023-08-12T16:57:07.212Z,96.94
2023-08-12T16:59:08.860Z,96.91
2023-08-12T17:01:10.229Z,96.75
2023-08-12T17:05:12.250Z,96.8
2023-08-12T17:07:13.878Z,96.81
2023-08-12T17:09:17.008Z,96.85
2023-08-12T17:11:16.982Z,96.83
2023-08-12T17:13:18.302Z,96.85
2023-08-12T17:15:19.394Z,96.97
2023-08-12T17:17:20.913Z,96.72
2023-08-12T17:21:23.619Z,96.73
2023-08-12T17:23:24.816Z,96.63
2023-08-12T17:25:25.890Z,96.54
2023-08-12T17:27:26.750Z,96.38
2023-08-12T17:31:28.472Z,96.23
2023-08-12T17:33:30.199Z,96.19
2023-08-12T17:35:33.813Z,96.09
2023-08-12T17:39:34.964Z,95.52
2023-08-12T17:41:35.811Z,95.65
2023-08-12T17:43:37.391Z,95.42
2023-08-12T17:45:38.445Z,94.83
2023-08-12T17:49:40.729Z,94.38
2023-08-12T17:51:43.499Z,93.96
2023-08-12T17:53:43.830Z,93.61
2023-08-12T17:57:46.159Z,93.5
2023-08-12T17:59:47.127Z,93.88
2023-08-12T18:01:48.801Z,94.04
2023-08-12T18:05:51.048Z,92.68
2023-08-12T18:07:52.327Z,92.72
2023-08-12T18:09:53.723Z,93.77
2023-08-12T18:11:55.173Z,94.21
2023-08-12T18:15:57.099Z,92.9
2023-08-12T18:17:58.009Z,92.15
2023-08-12T18:19:59.371Z,92.01
2023-08-12T18:24:02.164Z,92.26
2023-08-12T18:26:03.356Z,92.09
2023-08-12T18:28:04.889Z,92.22
2023-08-12T18:32:06.658Z,92.78
2023-08-12T18:34:08.012Z,93.08
2023-08-12T18:36:09.734Z,93.78
2023-08-12T18:38:10.597Z,93.8
2023-08-12T18:42:13.773Z,94.06
2023-08-12T18:44:14.699Z,94.22
2023-08-12T18:46:16.244Z,94.12
2023-08-12T18:50:19.258Z,94.5
2023-08-12T18:52:20.285Z,94.95
2023-08-12T18:54:21.730Z,95.42
2023-08-12T18:58:24.379Z,94.66
2023-08-12T19:00:25.514Z,94.39
2023-08-12T19:02:27.042Z,94.05
2023-08-12T19:04:28.507Z,93.89
2023-08-12T19:08:31.635Z,93.99
2023-08-12T19:10:33.132Z,94.08
2023-08-12T19:12:34.868Z,94.19
2023-08-12T19:16:37.640Z,94.28
2023-08-12T19:18:38.499Z,94.59
2023-08-12T19:20:39.875Z,94.65
2023-08-12T19:22:40.977Z,94.75
2023-08-12T19:26:43.376Z,94.7
2023-08-12T19:28:44.869Z,94.7
2023-08-12T19:30:46.035Z,94.86
2023-08-12T19:34:48.572Z,95.01
2023-08-12T19:36:50.028Z,95.08
2023-08-12T19:38:51.427Z,95.18
2023-08-12T19:42:53.808Z,95.06
2023-08-12T19:44:55.393Z,94.75
2023-08-12T19:46:57.171Z,94.48
2023-08-12T19:48:58.388Z,94.41
2023-08-12T19:53:00.668Z,94.47
2023-08-12T19:55:01.876Z,94.5
2023-08-12T19:57:02.970Z,94.49
2023-08-12T20:01:05.269Z,94.12
2023-08-12T20:03:06.093Z,93.65
2023-08-12T20:05:07.305Z,93.49
2023-08-12T20:07:08.195Z,93.51
2023-08-12T20:11:10.626Z,93.36
2023-08-12T20:13:12.109Z,93.29
2023-08-12T20:15:13.784Z,93.17
2023-08-12T20:19:16.138Z,92.9
2023-08-12T20:21:17.638Z,92.95
2023-08-12T20:23:18.784Z,93.02
2023-08-12T20:25:20.524Z,93.01
2023-08-12T20:29:22.743Z,93.05
2023-08-12T20:31:24.367Z,93.21
2023-08-12T20:33:25.911Z,93.25
2023-08-12T20:35:27.534Z,93.37
2023-08-12T20:37:28.978Z,93.44
2023-08-12T20:39:30.450Z,93.57
2023-08-12T20:41:31.584Z,93.51
2023-08-12T20:45:33.977Z,93.52
2023-08-12T20:47:35.262Z,93.47
2023-08-12T20:49:36.065Z,93.52
2023-08-12T20:51:37.870Z,93.65
2023-08-12T20:55:41.159Z,93.87
2023-08-12T20:57:42.700Z,93.92
2023-08-12T20:59:44.322Z,94.04
2023-08-12T21:03:47.225Z,94.33
2023-08-12T21:05:48.530Z,94.54
2023-08-12T21:07:50.095Z,94.56
2023-08-12T21:11:52.616Z,94.82
2023-08-12T21:13:53.513Z,94.72
2023-08-12T21:15:54.569Z,94.65
2023-08-12T21:17:56.276Z,94.66
2023-08-12T21:21:58.835Z,94.92
2023-08-12T21:24:00.221Z,95.02
2023-08-12T21:26:01.548Z,94.91
2023-08-12T21:30:04.304Z,94.75
2023-08-12T21:32:05.572Z,94.28
2023-08-12T21:34:07.181Z,94.17
2023-08-12T21:38:09.915Z,94.1
2023-08-12T21:40:11.520Z,94.1
2023-08-12T21:42:12.729Z,93.89
2023-08-12T21:44:13.829Z,93.87
2023-08-12T21:48:16.814Z,93.9
2023-08-12T21:50:17.912Z,93.86
2023-08-12T21:52:19.536Z,93.77
2023-08-12T21:56:22.575Z,93.74
2023-08-12T21:58:24.191Z,93.93
2023-08-12T22:00:25.454Z,93.93
2023-08-12T22:04:27.652Z,94.01
2023-08-12T22:06:29.114Z,94.05
2023-08-12T22:08:30.215Z,94.06
2023-08-12T22:10:31.214Z,94.07
2023-08-12T22:14:33.626Z,94.03
2023-08-12T22:16:35.153Z,94.08
2023-08-12T22:18:36.346Z,94.09
2023-08-12T22:22:39.408Z,94.14
2023-08-12T22:24:40.279Z,94.29
2023-08-12T22:26:41.116Z,94.32
2023-08-12T22:28:42.711Z,94.45
2023-08-12T22:32:46.296Z,94.5
2023-08-12T22:34:47.432Z,94.62
2023-08-12T22:36:48.834Z,94.68
2023-08-12T22:40:51.723Z,94.89
2023-08-12T22:42:53.235Z,94.91
2023-08-12T22:44:54.400Z,94.96
2023-08-12T22:50:58.156Z,95.22
2023-08-12T22:52:59.593Z,95.42
2023-08-12T22:55:01.332Z,95.43
2023-08-12T22:57:02.727Z,95.78
2023-08-12T22:59:04.160Z,95.81
2023-08-12T23:01:05.886Z,95.98
2023-08-12T23:03:07.163Z,96.21
2023-08-12T23:07:10.094Z,96.5
2023-08-12T23:09:11.770Z,96.39
2023-08-12T23:11:56.500Z,96.57
2023-08-12T23:15:59.469Z,96.55
2023-08-12T23:18:00.734Z,96.56
2023-08-12T23:20:01.882Z,96.8
2023-08-12T23:22:02.920Z,96.86
2023-08-12T23:26:05.467Z,96.99
2023-08-12T23:28:06.428Z,97.06
2023-08-12T23:30:07.398Z,96.94
2023-08-12T23:34:09.525Z,96.97
2023-08-12T23:36:11.071Z,97.01
2023-08-12T23:38:12.098Z,96.96
2023-08-12T23:42:14.620Z,96.92
2023-08-12T23:44:15.519Z,97.08
2023-08-12T23:46:16.802Z,97.23
2023-08-12T23:48:18.490Z,97.28
2023-08-12T23:52:21.629Z,97.13
2023-08-12T23:54:23.024Z,97.42
2023-08-12T23:56:24.808Z,97.44
